sensor_id;sensor_type;location;lat;lon;timestamp;P1;durP1;ratioP1;P2;durP2;ratioP2
8458;SDS011;4266;48.816;9.154;2022-08-20T00:01:00;2.80;;;2.00;;
8458;SDS011;4266;48.816;9.154;2022-08-20T00:03:29;3.35;;;2.00;;
8458;SDS011;4266;48.816;9.154;2022-08-20T00:05:54;1.95;;;1.77;;
8458;SDS011;4266;48.816;9.154;2022-08-20T00:08:20;2.10;;;2.00;;
8458;SDS011;4266;48.816;9.154;2022-08-20T00:10:46;2.10;;;2.00;;
8458;SDS011;4266;48.816;9.154;2022-08-20T00:13:13;2.67;;;2.30;;
8458;SDS011;4266;48.816;9.154;2022-08-20T00:15:38;2.33;;;2.08;;
8458;SDS011;4266;48.816;9.154;2022-08-20T00:18:04;2.10;;;2.00;;
8458;SDS011;4266;48.816;9.154;2022-08-20T00:20:31;2.03;;;1.92;;
8458;SDS011;4266;48.816;9.154;2022-08-20T00:22:56;2.30;;;2.12;;
8458;SDS011;4266;48.816;9.154;2022-08-20T00:25:22;2.25;;;2.15;;
8458;SDS011;4266;48.816;9.154;2022-08-20T00:27:47;2.28;;;2.17;;
8458;SDS011;4266;48.816;9.154;2022-08-20T00:30:13;2.50;;;2.30;;
8458;SDS011;4266;48.816;9.154;2022-08-20T00:32:40;3.95;;;2.37;;
8458;SDS011;4266;48.816;9.154;2022-08-20T00:35:25;2.20;;;2.10;;
8458;SDS011;4266;48.816;9.154;2022-08-20T00:37:46;2.70;;;1.95;;
8458;SDS011;4266;48.816;9.154;2022-08-20T00:40:13;2.42;;;2.33;;
8458;SDS011;4266;48.816;9.154;2022-08-20T00:42:43;2.00;;;1.90;;
8458;SDS011;4266;48.816;9.154;2022-08-20T00:45:08;2.22;;;2.03;;
8458;SDS011;4266;48.816;9.154;2022-08-20T00:47:34;1.90;;;1.80;;
8458;SDS011;4266;48.816;9.154;2022-08-20T00:49:59;2.07;;;1.97;;
8458;SDS011;4266;48.816;9.154;2022-08-20T00:52:25;2.00;;;1.90;;
8458;SDS011;4266;48.816;9.154;2022-08-20T00:54:53;2.15;;;2.05;;
8458;SDS011;4266;48.816;9.154;2022-08-20T00:57:24;2.10;;;1.90;;
8458;SDS011;4266;48.816;9.154;2022-08-20T00:59:50;5.47;;;2.43;;
8458;SDS011;4266;48.816;9.154;2022-08-20T01:02:15;2.03;;;1.92;;
8458;SDS011;4266;48.816;9.154;2022-08-20T01:04:41;2.03;;;1.92;;
8458;SDS011;4266;48.816;9.154;2022-08-20T01:07:08;2.03;;;1.93;;
8458;SDS011;4266;48.816;9.154;2022-08-20T01:09:33;2.03;;;1.92;;
8458;SDS011;4266;48.816;9.154;2022-08-20T01:11:59;1.95;;;1.85;;
8458;SDS011;4266;48.816;9.154;2022-08-20T01:14:25;1.90;;;1.80;;
8458;SDS011;4266;48.816;9.154;2022-08-20T01:16:54;2.00;;;1.90;;
8458;SDS011;4266;48.816;9.154;2022-08-20T01:19:20;2.22;;;2.12;;
8458;SDS011;4266;48.816;9.154;2022-08-20T01:21:45;2.40;;;2.20;;
8458;SDS011;4266;48.816;9.154;2022-08-20T01:24:16;3.35;;;2.00;;
8458;SDS011;4266;48.816;9.154;2022-08-20T01:26:40;2.00;;;1.90;;
8458;SDS011;4266;48.816;9.154;2022-08-20T01:29:07;2.20;;;2.10;;
8458;SDS011;4266;48.816;9.154;2022-08-20T01:31:34;2.08;;;1.98;;
8458;SDS011;4266;48.816;9.154;2022-08-20T01:34:00;2.03;;;1.90;;
8458;SDS011;4266;48.816;9.154;2022-08-20T01:36:27;1.92;;;1.83;;
8458;SDS011;4266;48.816;9.154;2022-08-20T01:38:51;3.37;;;1.90;;
8458;SDS011;4266;48.816;9.154;2022-08-20T01:42:26;1.90;;;1.80;;
8458;SDS011;4266;48.816;9.154;2022-08-20T01:44:16;2.08;;;1.85;;
8458;SDS011;4266;48.816;9.154;2022-08-20T01:46:42;2.30;;;2.20;;
8458;SDS011;4266;48.816;9.154;2022-08-20T01:49:12;2.08;;;1.98;;
8458;SDS011;4266;48.816;9.154;2022-08-20T01:51:46;1.90;;;1.80;;
8458;SDS011;4266;48.816;9.154;2022-08-20T01:54:12;2.15;;;2.00;;
8458;SDS011;4266;48.816;9.154;2022-08-20T01:56:49;2.00;;;1.90;;
8458;SDS011;4266;48.816;9.154;2022-08-20T01:59:04;2.12;;;2.03;;
8458;SDS011;4266;48.816;9.154;2022-08-20T02:01:31;2.25;;;2.12;;
8458;SDS011;4266;48.816;9.154;2022-08-20T02:03:55;2.20;;;2.10;;
8458;SDS011;4266;48.816;9.154;2022-08-20T02:06:21;2.50;;;2.40;;
8458;SDS011;4266;48.816;9.154;2022-08-20T02:08:47;2.10;;;2.00;;
8458;SDS011;4266;48.816;9.154;2022-08-20T02:11:12;2.00;;;1.90;;
8458;SDS011;4266;48.816;9.154;2022-08-20T02:13:38;1.95;;;1.85;;
8458;SDS011;4266;48.816;9.154;2022-08-20T02:16:05;2.40;;;2.20;;
8458;SDS011;4266;48.816;9.154;2022-08-20T02:18:31;2.12;;;2.03;;
8458;SDS011;4266;48.816;9.154;2022-08-20T02:20:56;2.12;;;2.03;;
8458;SDS011;4266;48.816;9.154;2022-08-20T02:23:22;2.75;;;1.80;;
8458;SDS011;4266;48.816;9.154;2022-08-20T02:25:48;2.10;;;2.00;;
8458;SDS011;4266;48.816;9.154;2022-08-20T02:28:15;2.12;;;2.03;;
8458;SDS011;4266;48.816;9.154;2022-08-20T02:30:41;2.20;;;2.00;;
8458;SDS011;4266;48.816;9.154;2022-08-20T02:33:07;6.15;;;2.28;;
8458;SDS011;4266;48.816;9.154;2022-08-20T02:35:31;2.17;;;2.08;;
8458;SDS011;4266;48.816;9.154;2022-08-20T02:37:57;2.12;;;2.03;;
8458;SDS011;4266;48.816;9.154;2022-08-20T02:40:23;2.50;;;2.30;;
8458;SDS011;4266;48.816;9.154;2022-08-20T02:42:49;2.20;;;2.10;;
8458;SDS011;4266;48.816;9.154;2022-08-20T02:45:15;2.12;;;1.92;;
8458;SDS011;4266;48.816;9.154;2022-08-20T02:47:41;2.12;;;2.03;;
8458;SDS011;4266;48.816;9.154;2022-08-20T02:50:09;2.03;;;1.92;;
8458;SDS011;4266;48.816;9.154;2022-08-20T02:52:32;1.90;;;1.80;;
8458;SDS011;4266;48.816;9.154;2022-08-20T02:54:59;2.10;;;2.00;;
8458;SDS011;4266;48.816;9.154;2022-08-20T02:57:24;2.65;;;2.45;;
8458;SDS011;4266;48.816;9.154;2022-08-20T02:59:51;2.20;;;2.10;;
8458;SDS011;4266;48.816;9.154;2022-08-20T03:02:17;2.22;;;2.12;;
8458;SDS011;4266;48.816;9.154;2022-08-20T03:04:43;2.58;;;2.37;;
8458;SDS011;4266;48.816;9.154;2022-08-20T03:07:09;2.50;;;2.30;;
8458;SDS011;4266;48.816;9.154;2022-08-20T03:09:35;2.15;;;2.05;;
8458;SDS011;4266;48.816;9.154;2022-08-20T03:12:01;4.30;;;2.40;;
8458;SDS011;4266;48.816;9.154;2022-08-20T03:14:27;3.17;;;2.40;;
8458;SDS011;4266;48.816;9.154;2022-08-20T03:16:53;2.28;;;2.17;;
8458;SDS011;4266;48.816;9.154;2022-08-20T03:19:19;2.60;;;2.50;;
8458;SDS011;4266;48.816;9.154;2022-08-20T03:21:44;2.50;;;2.40;;
8458;SDS011;4266;48.816;9.154;2022-08-20T03:24:10;3.22;;;3.03;;
8458;SDS011;4266;48.816;9.154;2022-08-20T03:26:36;2.60;;;2.40;;
8458;SDS011;4266;48.816;9.154;2022-08-20T03:29:02;2.58;;;2.42;;
8458;SDS011;4266;48.816;9.154;2022-08-20T03:31:27;2.70;;;2.50;;
8458;SDS011;4266;48.816;9.154;2022-08-20T03:33:54;2.53;;;2.42;;
8458;SDS011;4266;48.816;9.154;2022-08-20T03:36:21;3.25;;;2.60;;
8458;SDS011;4266;48.816;9.154;2022-08-20T03:38:47;2.60;;;2.50;;
8458;SDS011;4266;48.816;9.154;2022-08-20T03:41:13;2.65;;;2.55;;
8458;SDS011;4266;48.816;9.154;2022-08-20T03:43:39;2.60;;;2.50;;
8458;SDS011;4266;48.816;9.154;2022-08-20T03:46:06;2.67;;;2.50;;
8458;SDS011;4266;48.816;9.154;2022-08-20T03:48:31;3.03;;;2.83;;
8458;SDS011;4266;48.816;9.154;2022-08-20T03:50:57;2.70;;;2.50;;
8458;SDS011;4266;48.816;9.154;2022-08-20T03:53:23;2.70;;;2.50;;
8458;SDS011;4266;48.816;9.154;2022-08-20T03:55:50;3.00;;;2.80;;
8458;SDS011;4266;48.816;9.154;2022-08-20T03:58:15;3.30;;;3.10;;
8458;SDS011;4266;48.816;9.154;2022-08-20T04:00:43;4.00;;;2.95;;
8458;SDS011;4266;48.816;9.154;2022-08-20T04:03:08;3.00;;;2.90;;
8458;SDS011;4266;48.816;9.154;2022-08-20T04:05:34;4.07;;;3.00;;
8458;SDS011;4266;48.816;9.154;2022-08-20T04:08:00;2.78;;;2.67;;
8458;SDS011;4266;48.816;9.154;2022-08-20T04:10:25;2.90;;;2.70;;
8458;SDS011;4266;48.816;9.154;2022-08-20T04:12:51;2.92;;;2.62;;
8458;SDS011;4266;48.816;9.154;2022-08-20T04:15:17;3.08;;;2.70;;
8458;SDS011;4266;48.816;9.154;2022-08-20T04:17:45;3.10;;;2.80;;
8458;SDS011;4266;48.816;9.154;2022-08-20T04:20:11;3.30;;;3.10;;
8458;SDS011;4266;48.816;9.154;2022-08-20T04:22:37;3.47;;;3.17;;
8458;SDS011;4266;48.816;9.154;2022-08-20T04:25:03;3.08;;;2.87;;
8458;SDS011;4266;48.816;9.154;2022-08-20T04:27:30;6.40;;;3.20;;
8458;SDS011;4266;48.816;9.154;2022-08-20T04:29:56;3.95;;;3.00;;
8458;SDS011;4266;48.816;9.154;2022-08-20T04:32:21;3.00;;;2.90;;
8458;SDS011;4266;48.816;9.154;2022-08-20T04:34:47;3.50;;;3.10;;
8458;SDS011;4266;48.816;9.154;2022-08-20T04:37:13;3.37;;;3.17;;
8458;SDS011;4266;48.816;9.154;2022-08-20T04:39:38;3.70;;;3.28;;
8458;SDS011;4266;48.816;9.154;2022-08-20T04:42:04;3.30;;;3.10;;
8458;SDS011;4266;48.816;9.154;2022-08-20T04:44:31;3.20;;;3.00;;
8458;SDS011;4266;48.816;9.154;2022-08-20T04:46:56;3.40;;;3.20;;
8458;SDS011;4266;48.816;9.154;2022-08-20T04:49:22;3.42;;;3.25;;
8458;SDS011;4266;48.816;9.154;2022-08-20T04:51:48;3.17;;;2.95;;
8458;SDS011;4266;48.816;9.154;2022-08-20T04:54:13;3.70;;;3.40;;
8458;SDS011;4266;48.816;9.154;2022-08-20T04:56:39;3.50;;;3.30;;
8458;SDS011;4266;48.816;9.154;2022-08-20T04:59:05;3.33;;;3.12;;
8458;SDS011;4266;48.816;9.154;2022-08-20T05:01:30;4.05;;;3.17;;
8458;SDS011;4266;48.816;9.154;2022-08-20T05:03:56;3.83;;;3.45;;
8458;SDS011;4266;48.816;9.154;2022-08-20T05:06:23;3.78;;;3.42;;
8458;SDS011;4266;48.816;9.154;2022-08-20T05:08:48;3.55;;;3.35;;
8458;SDS011;4266;48.816;9.154;2022-08-20T05:11:14;3.85;;;3.55;;
8458;SDS011;4266;48.816;9.154;2022-08-20T05:13:40;3.42;;;3.22;;
8458;SDS011;4266;48.816;9.154;2022-08-20T05:16:06;3.92;;;3.70;;
8458;SDS011;4266;48.816;9.154;2022-08-20T05:18:33;3.65;;;3.45;;
8458;SDS011;4266;48.816;9.154;2022-08-20T05:21:00;3.37;;;3.17;;
8458;SDS011;4266;48.816;9.154;2022-08-20T05:23:25;4.18;;;3.87;;
8458;SDS011;4266;48.816;9.154;2022-08-20T05:25:52;3.55;;;3.25;;
8458;SDS011;4266;48.816;9.154;2022-08-20T05:28:21;3.80;;;3.55;;
8458;SDS011;4266;48.816;9.154;2022-08-20T05:30:46;3.65;;;3.45;;
8458;SDS011;4266;48.816;9.154;2022-08-20T05:33:13;3.95;;;3.65;;
8458;SDS011;4266;48.816;9.154;2022-08-20T05:35:38;3.90;;;3.60;;
8458;SDS011;4266;48.816;9.154;2022-08-20T05:38:05;3.80;;;3.60;;
8458;SDS011;4266;48.816;9.154;2022-08-20T05:40:31;3.67;;;3.42;;
8458;SDS011;4266;48.816;9.154;2022-08-20T05:42:57;3.70;;;3.50;;
8458;SDS011;4266;48.816;9.154;2022-08-20T05:45:23;3.35;;;3.15;;
8458;SDS011;4266;48.816;9.154;2022-08-20T05:47:50;3.90;;;3.70;;
8458;SDS011;4266;48.816;9.154;2022-08-20T05:50:16;4.12;;;3.83;;
8458;SDS011;4266;48.816;9.154;2022-08-20T05:52:41;4.05;;;3.85;;
8458;SDS011;4266;48.816;9.154;2022-08-20T05:55:08;4.10;;;3.80;;
8458;SDS011;4266;48.816;9.154;2022-08-20T05:57:33;3.97;;;3.67;;
8458;SDS011;4266;48.816;9.154;2022-08-20T06:00:00;3.65;;;3.42;;
8458;SDS011;4266;48.816;9.154;2022-08-20T06:02:25;3.50;;;3.30;;
8458;SDS011;4266;48.816;9.154;2022-08-20T06:04:57;4.20;;;4.00;;
8458;SDS011;4266;48.816;9.154;2022-08-20T06:07:23;4.10;;;3.70;;
8458;SDS011;4266;48.816;9.154;2022-08-20T06:09:50;3.50;;;3.30;;
8458;SDS011;4266;48.816;9.154;2022-08-20T06:12:15;3.50;;;3.25;;
8458;SDS011;4266;48.816;9.154;2022-08-20T06:14:41;3.90;;;3.30;;
8458;SDS011;4266;48.816;9.154;2022-08-20T06:17:09;3.40;;;3.20;;
8458;SDS011;4266;48.816;9.154;2022-08-20T06:19:34;3.60;;;3.30;;
8458;SDS011;4266;48.816;9.154;2022-08-20T06:22:01;3.33;;;3.03;;
8458;SDS011;4266;48.816;9.154;2022-08-20T06:24:26;3.50;;;3.30;;
8458;SDS011;4266;48.816;9.154;2022-08-20T06:26:54;3.75;;;3.45;;
8458;SDS011;4266;48.816;9.154;2022-08-20T06:29:20;3.90;;;3.60;;
8458;SDS011;4266;48.816;9.154;2022-08-20T06:31:46;3.70;;;3.40;;
8458;SDS011;4266;48.816;9.154;2022-08-20T06:34:12;3.65;;;3.35;;
8458;SDS011;4266;48.816;9.154;2022-08-20T06:36:38;5.62;;;3.05;;
8458;SDS011;4266;48.816;9.154;2022-08-20T06:39:03;3.78;;;3.47;;
8458;SDS011;4266;48.816;9.154;2022-08-20T06:41:29;3.60;;;3.37;;
8458;SDS011;4266;48.816;9.154;2022-08-20T06:43:55;3.80;;;3.50;;
8458;SDS011;4266;48.816;9.154;2022-08-20T06:46:21;3.87;;;3.58;;
8458;SDS011;4266;48.816;9.154;2022-08-20T06:48:48;3.45;;;3.20;;
8458;SDS011;4266;48.816;9.154;2022-08-20T06:51:13;3.60;;;3.30;;
8458;SDS011;4266;48.816;9.154;2022-08-20T06:53:40;3.67;;;3.37;;
8458;SDS011;4266;48.816;9.154;2022-08-20T06:56:05;3.70;;;3.50;;
8458;SDS011;4266;48.816;9.154;2022-08-20T06:58:31;3.72;;;3.47;;
8458;SDS011;4266;48.816;9.154;2022-08-20T07:00:58;3.92;;;3.62;;
8458;SDS011;4266;48.816;9.154;2022-08-20T07:03:24;3.62;;;3.40;;
8458;SDS011;4266;48.816;9.154;2022-08-20T07:05:49;3.83;;;3.53;;
8458;SDS011;4266;48.816;9.154;2022-08-20T07:08:15;3.83;;;3.62;;
8458;SDS011;4266;48.816;9.154;2022-08-20T07:10:41;3.97;;;3.67;;
8458;SDS011;4266;48.816;9.154;2022-08-20T07:13:09;4.00;;;3.62;;
8458;SDS011;4266;48.816;9.154;2022-08-20T07:15:34;3.75;;;3.55;;
8458;SDS011;4266;48.816;9.154;2022-08-20T07:18:00;3.83;;;3.62;;
8458;SDS011;4266;48.816;9.154;2022-08-20T07:20:26;3.72;;;3.47;;
8458;SDS011;4266;48.816;9.154;2022-08-20T07:22:51;3.87;;;3.62;;
8458;SDS011;4266;48.816;9.154;2022-08-20T07:25:18;4.12;;;3.80;;
8458;SDS011;4266;48.816;9.154;2022-08-20T07:27:43;4.20;;;3.70;;
8458;SDS011;4266;48.816;9.154;2022-08-20T07:30:11;3.90;;;3.60;;
8458;SDS011;4266;48.816;9.154;2022-08-20T07:32:42;3.55;;;3.33;;
8458;SDS011;4266;48.816;9.154;2022-08-20T07:35:09;3.75;;;3.50;;
8458;SDS011;4266;48.816;9.154;2022-08-20T07:37:37;4.70;;;3.60;;
8458;SDS011;4266;48.816;9.154;2022-08-20T07:40:03;3.92;;;3.62;;
8458;SDS011;4266;48.816;9.154;2022-08-20T07:42:30;3.60;;;3.30;;
8458;SDS011;4266;48.816;9.154;2022-08-20T07:44:56;4.03;;;3.72;;
8458;SDS011;4266;48.816;9.154;2022-08-20T07:47:21;4.32;;;3.37;;
8458;SDS011;4266;48.816;9.154;2022-08-20T07:49:48;3.58;;;3.37;;
8458;SDS011;4266;48.816;9.154;2022-08-20T07:52:13;3.95;;;3.47;;
8458;SDS011;4266;48.816;9.154;2022-08-20T07:54:39;3.50;;;3.20;;
8458;SDS011;4266;48.816;9.154;2022-08-20T07:57:05;3.53;;;3.10;;
8458;SDS011;4266;48.816;9.154;2022-08-20T07:59:31;5.62;;;3.75;;
8458;SDS011;4266;48.816;9.154;2022-08-20T08:01:56;3.28;;;3.08;;
8458;SDS011;4266;48.816;9.154;2022-08-20T08:04:22;3.60;;;3.30;;
8458;SDS011;4266;48.816;9.154;2022-08-20T08:06:47;4.12;;;3.12;;
8458;SDS011;4266;48.816;9.154;2022-08-20T08:09:13;3.80;;;2.72;;
8458;SDS011;4266;48.816;9.154;2022-08-20T08:11:44;2.90;;;2.70;;
8458;SDS011;4266;48.816;9.154;2022-08-20T08:14:05;3.17;;;2.97;;
8458;SDS011;4266;48.816;9.154;2022-08-20T08:16:32;3.83;;;3.08;;
8458;SDS011;4266;48.816;9.154;2022-08-20T08:18:57;2.70;;;2.60;;
8458;SDS011;4266;48.816;9.154;2022-08-20T08:21:23;3.08;;;2.87;;
8458;SDS011;4266;48.816;9.154;2022-08-20T08:23:49;3.35;;;3.10;;
8458;SDS011;4266;48.816;9.154;2022-08-20T08:26:15;2.80;;;2.70;;
8458;SDS011;4266;48.816;9.154;2022-08-20T08:28:40;6.43;;;3.33;;
8458;SDS011;4266;48.816;9.154;2022-08-20T08:31:06;3.08;;;2.80;;
8458;SDS011;4266;48.816;9.154;2022-08-20T08:33:32;3.12;;;2.97;;
8458;SDS011;4266;48.816;9.154;2022-08-20T08:36:00;3.03;;;2.83;;
8458;SDS011;4266;48.816;9.154;2022-08-20T08:38:26;3.17;;;2.97;;
8458;SDS011;4266;48.816;9.154;2022-08-20T08:40:53;3.47;;;3.10;;
8458;SDS011;4266;48.816;9.154;2022-08-20T08:43:17;3.03;;;2.83;;
8458;SDS011;4266;48.816;9.154;2022-08-20T08:45:44;3.10;;;2.90;;
8458;SDS011;4266;48.816;9.154;2022-08-20T08:48:11;2.92;;;2.72;;
8458;SDS011;4266;48.816;9.154;2022-08-20T08:50:37;3.15;;;2.95;;
8458;SDS011;4266;48.816;9.154;2022-08-20T08:53:02;3.47;;;3.25;;
8458;SDS011;4266;48.816;9.154;2022-08-20T08:55:28;3.28;;;3.08;;
8458;SDS011;4266;48.816;9.154;2022-08-20T08:57:54;3.53;;;3.03;;
8458;SDS011;4266;48.816;9.154;2022-08-20T09:00:19;3.58;;;2.70;;
8458;SDS011;4266;48.816;9.154;2022-08-20T09:05:22;3.30;;;3.10;;
8458;SDS011;4266;48.816;9.154;2022-08-20T09:07:48;3.65;;;3.45;;
8458;SDS011;4266;48.816;9.154;2022-08-20T09:10:13;3.12;;;2.80;;
8458;SDS011;4266;48.816;9.154;2022-08-20T09:12:39;3.00;;;2.80;;
8458;SDS011;4266;48.816;9.154;2022-08-20T09:15:05;2.87;;;2.67;;
8458;SDS011;4266;48.816;9.154;2022-08-20T09:17:33;2.70;;;2.60;;
8458;SDS011;4266;48.816;9.154;2022-08-20T09:19:59;2.97;;;2.78;;
8458;SDS011;4266;48.816;9.154;2022-08-20T09:22:25;2.30;;;2.20;;
8458;SDS011;4266;48.816;9.154;2022-08-20T09:24:51;2.47;;;1.77;;
8458;SDS011;4266;48.816;9.154;2022-08-20T09:27:16;2.60;;;2.40;;
8458;SDS011;4266;48.816;9.154;2022-08-20T09:29:42;2.30;;;2.20;;
8458;SDS011;4266;48.816;9.154;2022-08-20T09:32:09;2.10;;;2.00;;
8458;SDS011;4266;48.816;9.154;2022-08-20T09:34:37;1.80;;;1.70;;
8458;SDS011;4266;48.816;9.154;2022-08-20T09:37:02;1.73;;;1.58;;
8458;SDS011;4266;48.816;9.154;2022-08-20T09:39:29;1.80;;;1.70;;
8458;SDS011;4266;48.816;9.154;2022-08-20T09:42:05;2.00;;;1.80;;
8458;SDS011;4266;48.816;9.154;2022-08-20T09:44:21;1.50;;;1.50;;
8458;SDS011;4266;48.816;9.154;2022-08-20T09:46:46;1.75;;;1.65;;
8458;SDS011;4266;48.816;9.154;2022-08-20T09:49:12;1.73;;;1.62;;
8458;SDS011;4266;48.816;9.154;2022-08-20T09:51:38;1.90;;;1.80;;
8458;SDS011;4266;48.816;9.154;2022-08-20T09:54:04;2.12;;;2.03;;
8458;SDS011;4266;48.816;9.154;2022-08-20T09:56:30;2.20;;;2.10;;
8458;SDS011;4266;48.816;9.154;2022-08-20T09:58:55;1.75;;;1.65;;
8458;SDS011;4266;48.816;9.154;2022-08-20T10:01:21;2.87;;;1.73;;
8458;SDS011;4266;48.816;9.154;2022-08-20T10:03:47;1.90;;;1.80;;
8458;SDS011;4266;48.816;9.154;2022-08-20T10:06:13;1.98;;;1.87;;
8458;SDS011;4266;48.816;9.154;2022-08-20T10:08:38;1.75;;;1.62;;
8458;SDS011;4266;48.816;9.154;2022-08-20T10:11:04;1.65;;;1.60;;
8458;SDS011;4266;48.816;9.154;2022-08-20T10:13:30;1.80;;;1.70;;
8458;SDS011;4266;48.816;9.154;2022-08-20T10:15:55;1.85;;;1.70;;
8458;SDS011;4266;48.816;9.154;2022-08-20T10:18:21;1.10;;;1.10;;
8458;SDS011;4266;48.816;9.154;2022-08-20T10:20:47;0.90;;;0.90;;
8458;SDS011;4266;48.816;9.154;2022-08-20T10:23:12;1.02;;;1.02;;
8458;SDS011;4266;48.816;9.154;2022-08-20T10:25:40;0.95;;;0.95;;
8458;SDS011;4266;48.816;9.154;2022-08-20T10:28:05;1.20;;;1.10;;
8458;SDS011;4266;48.816;9.154;2022-08-20T10:30:31;0.90;;;0.90;;
8458;SDS011;4266;48.816;9.154;2022-08-20T10:32:57;1.10;;;1.10;;
8458;SDS011;4266;48.816;9.154;2022-08-20T10:35:23;0.70;;;0.70;;
8458;SDS011;4266;48.816;9.154;2022-08-20T10:37:49;3.90;;;1.20;;
8458;SDS011;4266;48.816;9.154;2022-08-20T10:40:14;1.00;;;1.00;;
8458;SDS011;4266;48.816;9.154;2022-08-20T10:42:41;1.00;;;1.00;;
8458;SDS011;4266;48.816;9.154;2022-08-20T10:45:06;1.67;;;1.42;;
8458;SDS011;4266;48.816;9.154;2022-08-20T10:47:33;1.30;;;1.30;;
8458;SDS011;4266;48.816;9.154;2022-08-20T10:49:59;1.37;;;1.20;;
8458;SDS011;4266;48.816;9.154;2022-08-20T10:52:24;0.88;;;0.88;;
8458;SDS011;4266;48.816;9.154;2022-08-20T10:54:50;0.80;;;0.80;;
8458;SDS011;4266;48.816;9.154;2022-08-20T10:57:18;1.15;;;1.10;;
8458;SDS011;4266;48.816;9.154;2022-08-20T10:59:45;1.20;;;1.10;;
8458;SDS011;4266;48.816;9.154;2022-08-20T11:02:11;0.90;;;0.90;;
8458;SDS011;4266;48.816;9.154;2022-08-20T11:04:37;0.65;;;0.65;;
8458;SDS011;4266;48.816;9.154;2022-08-20T11:09:42;0.60;;;0.60;;
8458;SDS011;4266;48.816;9.154;2022-08-20T11:12:08;0.85;;;0.85;;
8458;SDS011;4266;48.816;9.154;2022-08-20T11:14:33;0.70;;;0.70;;
8458;SDS011;4266;48.816;9.154;2022-08-20T11:17:01;0.88;;;0.88;;
8458;SDS011;4266;48.816;9.154;2022-08-20T11:19:26;0.90;;;0.90;;
8458;SDS011;4266;48.816;9.154;2022-08-20T11:21:52;2.28;;;1.00;;
8458;SDS011;4266;48.816;9.154;2022-08-20T11:24:17;4.32;;;1.25;;
8458;SDS011;4266;48.816;9.154;2022-08-20T11:26:44;1.12;;;1.12;;
8458;SDS011;4266;48.816;9.154;2022-08-20T11:29:09;0.98;;;0.98;;
8458;SDS011;4266;48.816;9.154;2022-08-20T11:31:34;0.85;;;0.85;;
8458;SDS011;4266;48.816;9.154;2022-08-20T11:34:00;1.00;;;1.00;;
8458;SDS011;4266;48.816;9.154;2022-08-20T11:36:26;1.05;;;1.05;;
8458;SDS011;4266;48.816;9.154;2022-08-20T11:38:51;0.90;;;0.90;;
8458;SDS011;4266;48.816;9.154;2022-08-20T11:41:17;1.17;;;1.15;;
8458;SDS011;4266;48.816;9.154;2022-08-20T11:43:43;0.90;;;0.90;;
8458;SDS011;4266;48.816;9.154;2022-08-20T11:46:10;0.80;;;0.80;;
8458;SDS011;4266;48.816;9.154;2022-08-20T11:48:35;1.02;;;1.02;;
8458;SDS011;4266;48.816;9.154;2022-08-20T11:51:01;1.00;;;1.00;;
8458;SDS011;4266;48.816;9.154;2022-08-20T11:53:27;1.62;;;1.40;;
8458;SDS011;4266;48.816;9.154;2022-08-20T11:55:53;1.95;;;1.55;;
8458;SDS011;4266;48.816;9.154;2022-08-20T11:58:19;2.15;;;1.60;;
8458;SDS011;4266;48.816;9.154;2022-08-20T12:00:45;2.35;;;2.15;;
8458;SDS011;4266;48.816;9.154;2022-08-20T12:03:12;1.58;;;1.48;;
8458;SDS011;4266;48.816;9.154;2022-08-20T12:05:38;1.70;;;1.40;;
8458;SDS011;4266;48.816;9.154;2022-08-20T12:08:03;1.40;;;1.30;;
8458;SDS011;4266;48.816;9.154;2022-08-20T12:10:29;1.60;;;1.50;;
8458;SDS011;4266;48.816;9.154;2022-08-20T12:12:54;2.20;;;1.70;;
8458;SDS011;4266;48.816;9.154;2022-08-20T12:15:20;1.60;;;1.50;;
8458;SDS011;4266;48.816;9.154;2022-08-20T12:17:46;1.65;;;1.55;;
8458;SDS011;4266;48.816;9.154;2022-08-20T12:20:12;2.85;;;1.35;;
8458;SDS011;4266;48.816;9.154;2022-08-20T12:22:37;1.70;;;1.60;;
8458;SDS011;4266;48.816;9.154;2022-08-20T12:25:03;1.60;;;1.50;;
8458;SDS011;4266;48.816;9.154;2022-08-20T12:27:30;1.48;;;1.40;;
8458;SDS011;4266;48.816;9.154;2022-08-20T12:29:56;1.40;;;1.30;;
8458;SDS011;4266;48.816;9.154;2022-08-20T12:32:24;1.42;;;1.35;;
8458;SDS011;4266;48.816;9.154;2022-08-20T12:34:48;1.23;;;1.23;;
8458;SDS011;4266;48.816;9.154;2022-08-20T12:37:15;1.25;;;1.25;;
8458;SDS011;4266;48.816;9.154;2022-08-20T12:39:40;1.40;;;1.40;;
8458;SDS011;4266;48.816;9.154;2022-08-20T12:42:05;1.73;;;1.62;;
8458;SDS011;4266;48.816;9.154;2022-08-20T12:44:31;1.20;;;1.20;;
8458;SDS011;4266;48.816;9.154;2022-08-20T12:49:34;1.27;;;1.27;;
8458;SDS011;4266;48.816;9.154;2022-08-20T12:52:00;1.30;;;1.30;;
8458;SDS011;4266;48.816;9.154;2022-08-20T12:54:25;3.33;;;1.58;;
8458;SDS011;4266;48.816;9.154;2022-08-20T12:56:52;1.87;;;1.50;;
8458;SDS011;4266;48.816;9.154;2022-08-20T12:59:17;1.85;;;1.60;;
8458;SDS011;4266;48.816;9.154;2022-08-20T13:01:43;3.08;;;1.50;;
8458;SDS011;4266;48.816;9.154;2022-08-20T13:04:09;4.43;;;2.10;;
8458;SDS011;4266;48.816;9.154;2022-08-20T13:06:35;3.20;;;2.10;;
8458;SDS011;4266;48.816;9.154;2022-08-20T13:09:01;6.32;;;2.37;;
8458;SDS011;4266;48.816;9.154;2022-08-20T13:11:27;5.18;;;2.10;;
8458;SDS011;4266;48.816;9.154;2022-08-20T13:13:53;3.20;;;2.10;;
8458;SDS011;4266;48.816;9.154;2022-08-20T13:16:18;5.07;;;2.37;;
8458;SDS011;4266;48.816;9.154;2022-08-20T13:18:45;2.55;;;2.00;;
8458;SDS011;4266;48.816;9.154;2022-08-20T13:21:11;5.65;;;2.10;;
8458;SDS011;4266;48.816;9.154;2022-08-20T13:23:37;2.53;;;1.80;;
8458;SDS011;4266;48.816;9.154;2022-08-20T13:26:03;2.62;;;1.70;;
8458;SDS011;4266;48.816;9.154;2022-08-20T13:28:29;2.70;;;1.95;;
8458;SDS011;4266;48.816;9.154;2022-08-20T13:30:54;2.85;;;1.75;;
8458;SDS011;4266;48.816;9.154;2022-08-20T13:33:20;1.90;;;1.80;;
8458;SDS011;4266;48.816;9.154;2022-08-20T13:35:46;3.75;;;2.03;;
8458;SDS011;4266;48.816;9.154;2022-08-20T13:38:12;2.53;;;2.22;;
8458;SDS011;4266;48.816;9.154;2022-08-20T13:40:37;2.08;;;1.90;;
8458;SDS011;4266;48.816;9.154;2022-08-20T13:43:03;2.58;;;2.37;;
8458;SDS011;4266;48.816;9.154;2022-08-20T13:45:29;1.98;;;1.87;;
8458;SDS011;4266;48.816;9.154;2022-08-20T13:47:55;2.67;;;2.15;;
8458;SDS011;4266;48.816;9.154;2022-08-20T13:50:21;3.05;;;2.03;;
8458;SDS011;4266;48.816;9.154;2022-08-20T13:52:46;1.55;;;1.50;;
8458;SDS011;4266;48.816;9.154;2022-08-20T13:55:14;2.25;;;1.70;;
8458;SDS011;4266;48.816;9.154;2022-08-20T13:57:38;2.10;;;2.00;;
8458;SDS011;4266;48.816;9.154;2022-08-20T14:00:05;1.77;;;1.67;;
8458;SDS011;4266;48.816;9.154;2022-08-20T14:02:31;1.77;;;1.58;;
8458;SDS011;4266;48.816;9.154;2022-08-20T14:04:56;2.08;;;1.98;;
8458;SDS011;4266;48.816;9.154;2022-08-20T14:07:23;2.00;;;1.90;;
8458;SDS011;4266;48.816;9.154;2022-08-20T14:09:51;1.95;;;1.85;;
8458;SDS011;4266;48.816;9.154;2022-08-20T14:12:16;2.15;;;1.98;;
8458;SDS011;4266;48.816;9.154;2022-08-20T14:14:42;2.00;;;1.90;;
8458;SDS011;4266;48.816;9.154;2022-08-20T14:17:15;2.10;;;2.00;;
8458;SDS011;4266;48.816;9.154;2022-08-20T14:19:43;2.05;;;1.95;;
8458;SDS011;4266;48.816;9.154;2022-08-20T14:22:08;2.37;;;2.00;;
8458;SDS011;4266;48.816;9.154;2022-08-20T14:24:34;2.03;;;1.92;;
8458;SDS011;4266;48.816;9.154;2022-08-20T14:27:02;2.47;;;2.28;;
8458;SDS011;4266;48.816;9.154;2022-08-20T14:29:27;2.50;;;2.30;;
8458;SDS011;4266;48.816;9.154;2022-08-20T14:31:52;2.37;;;2.28;;
8458;SDS011;4266;48.816;9.154;2022-08-20T14:34:19;3.55;;;2.70;;
8458;SDS011;4266;48.816;9.154;2022-08-20T14:36:44;3.03;;;2.60;;
8458;SDS011;4266;48.816;9.154;2022-08-20T14:39:10;2.17;;;2.08;;
8458;SDS011;4266;48.816;9.154;2022-08-20T14:41:36;2.20;;;2.00;;
8458;SDS011;4266;48.816;9.154;2022-08-20T14:44:02;2.37;;;1.90;;
8458;SDS011;4266;48.816;9.154;2022-08-20T14:46:28;2.10;;;1.90;;
8458;SDS011;4266;48.816;9.154;2022-08-20T14:48:54;2.00;;;1.90;;
8458;SDS011;4266;48.816;9.154;2022-08-20T14:51:20;2.00;;;1.90;;
8458;SDS011;4266;48.816;9.154;2022-08-20T14:53:46;1.87;;;1.77;;
8458;SDS011;4266;48.816;9.154;2022-08-20T14:56:12;2.10;;;1.80;;
8458;SDS011;4266;48.816;9.154;2022-08-20T14:58:38;1.80;;;1.70;;
8458;SDS011;4266;48.816;9.154;2022-08-20T15:01:04;2.03;;;1.85;;
8458;SDS011;4266;48.816;9.154;2022-08-20T15:03:30;2.87;;;1.70;;
8458;SDS011;4266;48.816;9.154;2022-08-20T15:05:56;2.25;;;2.00;;
8458;SDS011;4266;48.816;9.154;2022-08-20T15:08:22;1.70;;;1.60;;
8458;SDS011;4266;48.816;9.154;2022-08-20T15:10:47;1.70;;;1.60;;
8458;SDS011;4266;48.816;9.154;2022-08-20T15:13:13;3.30;;;2.42;;
8458;SDS011;4266;48.816;9.154;2022-08-20T15:15:40;2.12;;;1.92;;